Time;durP1;ratioP1;P1;durP2;ratioP2;P2;SDS_P1;SDS_P2;PMS_P1;PMS_P2;Temp;Humidity;BMP_temperature;BMP_pressure;BME280_temperature;BME280_humidity;BME280_pressure;Samples;Min_cycle;Max_cycle;Signal;HPM_P1;HPM_P2
2023/05/30 00:01:48;;;;;;;26.30;10.80;;;7.00;99.90;;;;;;5026892;28;20049;-79
2023/05/30 00:04:13;;;;;;;21.52;9.35;;;7.00;99.90;;;;;;5010993;28;20042;-79
2023/05/30 00:06:39;;;;;;;21.27;9.68;;;7.00;99.90;;;;;;5009831;28;20132;-79
2023/05/30 00:09:05;;;;;;;21.63;8.77;;;7.00;99.90;;;;;;5019110;28;20078;-79
2023/05/30 00:11:31;;;;;;;19.10;8.23;;;7.00;99.90;;;;;;5007211;28;20034;-79
2023/05/30 00:13:57;;;;;;;16.65;8.30;;;7.10;99.90;;;;;;5005511;28;20100;-79
2023/05/30 00:16:23;;;;;;;21.35;8.93;;;7.10;99.90;;;;;;5010681;28;20029;-79
2023/05/30 00:18:52;;;;;;;20.38;8.63;;;7.10;99.90;;;;;;5009995;28;20045;-79
2023/05/30 00:21:18;;;;;;;21.00;8.98;;;7.20;99.90;;;;;;5006474;28;20149;-79
2023/05/30 00:23:45;;;;;;;19.15;8.82;;;7.30;99.90;;;;;;5010351;28;20514;-79
2023/05/30 00:26:11;;;;;;;17.45;8.55;;;7.40;99.90;;;;;;5010444;28;20125;-79
2023/05/30 00:28:38;;;;;;;19.38;8.90;;;7.40;99.90;;;;;;5026149;28;20042;-80
2023/05/30 00:31:04;;;;;;;16.35;8.05;;;7.60;99.90;;;;;;5005638;28;20034;-79
2023/05/30 00:33:29;;;;;;;20.00;8.98;;;7.70;99.90;;;;;;5009937;28;20045;-79
2023/05/30 00:35:55;;;;;;;18.58;8.48;;;7.70;99.90;;;;;;5010676;28;20038;-80
2023/05/30 00:38:21;;;;;;;20.40;8.40;;;7.80;99.90;;;;;;5001534;28;20551;-80
2023/05/30 00:40:46;;;;;;;21.70;8.63;;;8.00;99.90;;;;;;4992720;28;20063;-79
2023/05/30 00:43:12;;;;;;;19.70;8.23;;;8.10;99.90;;;;;;5026670;28;20049;-79
2023/05/30 00:45:38;;;;;;;16.77;7.22;;;8.30;99.90;;;;;;5010028;28;20145;-79
2023/05/30 00:48:04;;;;;;;16.98;6.65;;;8.50;99.90;;;;;;5009830;28;20091;-79
2023/05/30 00:50:31;;;;;;;19.40;6.72;;;8.70;99.90;;;;;;5001749;28;20038;-79
2023/05/30 00:52:59;;;;;;;19.65;7.15;;;8.90;99.90;;;;;;5010682;28;20085;-79
2023/05/30 00:55:26;;;;;;;15.43;6.30;;;9.10;99.90;;;;;;5010759;28;20053;-79
2023/05/30 00:57:52;;;;;;;19.17;6.55;;;9.20;99.90;;;;;;5025665;28;20120;-79
2023/05/30 01:00:19;;;;;;;17.38;7.05;;;9.30;99.90;;;;;;5019651;28;20133;-79
2023/05/30 01:02:46;;;;;;;13.88;6.78;;;9.40;99.90;;;;;;5010655;28;20062;-80
2023/05/30 01:05:14;;;;;;;15.23;7.45;;;9.50;99.90;;;;;;5012704;28;20041;-79
2023/05/30 01:07:43;;;;;;;18.50;6.80;;;9.50;99.90;;;;;;5013470;28;20037;-79
2023/05/30 01:10:13;;;;;;;14.02;6.82;;;9.50;99.90;;;;;;5013339;28;20042;-79
2023/05/30 01:12:59;;;;;;;14.27;6.07;;;9.50;99.90;;;;;;5013493;28;20496;-79
2023/05/30 01:15:32;;;;;;;14.45;6.22;;;9.60;99.90;;;;;;5021900;28;20046;-79
2023/05/30 01:18:07;;;;;;;14.77;6.10;;;9.70;99.90;;;;;;5013213;28;20470;-80
2023/05/30 01:20:38;;;;;;;13.70;5.90;;;9.80;99.90;;;;;;5010363;28;20046;-80
2023/05/30 01:23:14;;;;;;;15.38;6.03;;;9.80;99.90;;;;;;5025507;28;20128;-80
2023/05/30 01:25:45;;;;;;;15.77;6.63;;;9.90;99.90;;;;;;5010570;28;20504;-79
2023/05/30 01:28:20;;;;;;;13.55;5.90;;;9.90;99.90;;;;;;5012990;28;20038;-79
2023/05/30 01:30:48;;;;;;;14.65;6.38;;;9.90;99.90;;;;;;5003174;28;20034;-80
2023/05/30 01:33:16;;;;;;;17.38;6.53;;;9.90;99.90;;;;;;4997056;28;20034;-79
2023/05/30 01:35:44;;;;;;;13.73;7.07;;;9.90;99.90;;;;;;5025701;28;20030;-79
2023/05/30 01:38:10;;;;;;;14.38;6.63;;;9.90;99.90;;;;;;5009051;28;20037;-79
2023/05/30 01:40:37;;;;;;;13.43;7.68;;;10.00;99.90;;;;;;5037546;22;20080;-77
2023/05/30 01:43:23;;;;;;;13.63;7.80;;;10.00;99.90;;;;;;5004848;28;20030;-76
2023/05/30 01:46:02;;;;;;;15.05;7.43;;;10.10;99.90;;;;;;5001046;28;20036;-76
2023/05/30 01:48:40;;;;;;;13.05;7.75;;;10.10;99.90;;;;;;5000845;28;20438;-77
2023/05/30 01:51:12;;;;;;;15.00;7.68;;;10.10;99.90;;;;;;5012867;28;20066;-77
2023/05/30 01:53:46;;;;;;;12.40;7.43;;;10.10;99.90;;;;;;5004632;28;20087;-77
2023/05/30 01:56:14;;;;;;;12.57;7.82;;;10.10;99.90;;;;;;4996567;28;20447;-76
2023/05/30 01:58:40;;;;;;;14.68;7.50;;;10.10;99.90;;;;;;4998037;28;20506;-77
2023/05/30 02:01:08;;;;;;;12.43;7.25;;;10.20;99.90;;;;;;4992435;28;20033;-77
2023/05/30 02:03:33;;;;;;;12.20;6.57;;;10.20;99.90;;;;;;5015126;28;20040;-77
2023/05/30 02:06:00;;;;;;;14.23;6.72;;;10.20;99.90;;;;;;4995200;28;20128;-76
2023/05/30 02:08:26;;;;;;;14.13;6.82;;;10.20;99.90;;;;;;4999347;28;20038;-77
2023/05/30 02:10:52;;;;;;;13.32;6.75;;;10.20;99.90;;;;;;5004862;28;20065;-77
2023/05/30 02:13:18;;;;;;;12.35;6.72;;;10.20;99.90;;;;;;5005856;28;20495;-76
2023/05/30 02:15:43;;;;;;;13.75;6.68;;;10.20;99.90;;;;;;4994124;28;20154;-76
2023/05/30 02:18:10;;;;;;;12.73;6.60;;;10.20;99.90;;;;;;4995079;28;20041;-76
2023/05/30 02:20:36;;;;;;;15.23;7.22;;;10.20;99.90;;;;;;5006841;28;20044;-77
2023/05/30 02:23:02;;;;;;;15.48;7.03;;;10.20;99.90;;;;;;5009052;28;20356;-77
2023/05/30 02:25:28;;;;;;;13.30;6.30;;;10.10;99.90;;;;;;5002265;28;20102;-77
2023/05/30 02:27:54;;;;;;;13.15;6.60;;;10.20;99.90;;;;;;5008828;28;20488;-77
2023/05/30 02:30:20;;;;;;;14.05;6.47;;;10.20;99.90;;;;;;5014159;28;20045;-77
2023/05/30 02:32:45;;;;;;;12.48;5.93;;;10.20;99.90;;;;;;5014109;28;20025;-77
2023/05/30 02:35:12;;;;;;;13.50;6.30;;;10.20;99.90;;;;;;5015552;28;20041;-77
2023/05/30 02:37:39;;;;;;;14.77;6.38;;;10.10;99.90;;;;;;5015031;28;20045;-76
2023/05/30 02:40:09;;;;;;;13.07;5.85;;;10.10;99.90;;;;;;4997619;28;20037;-77
2023/05/30 02:42:35;;;;;;;12.73;5.85;;;10.10;99.90;;;;;;4998268;28;20045;-77
2023/05/30 02:45:01;;;;;;;13.50;6.05;;;10.20;99.90;;;;;;5002203;28;20049;-77
2023/05/30 02:47:26;;;;;;;11.68;5.63;;;10.10;99.90;;;;;;5006548;28;20111;-76
2023/05/30 02:49:52;;;;;;;14.85;5.90;;;10.10;99.90;;;;;;5014771;28;20487;-77
2023/05/30 02:52:19;;;;;;;11.98;5.22;;;10.20;99.90;;;;;;4989282;28;20034;-77
2023/05/30 02:54:46;;;;;;;12.10;5.45;;;10.10;99.90;;;;;;5006579;28;20099;-77
2023/05/30 02:57:12;;;;;;;11.77;5.25;;;10.10;99.90;;;;;;4982739;28;20088;-77
2023/05/30 02:59:37;;;;;;;12.20;6.03;;;10.10;99.90;;;;;;4981494;28;20077;-76
2023/05/30 03:02:03;;;;;;;13.43;6.18;;;10.10;99.90;;;;;;4997082;28;20044;-77
2023/05/30 03:04:29;;;;;;;13.30;5.88;;;10.10;99.90;;;;;;4988109;28;20077;-76
2023/05/30 03:06:55;;;;;;;13.93;5.55;;;10.10;99.90;;;;;;4991627;28;20075;-77
2023/05/30 03:09:21;;;;;;;12.95;5.90;;;10.00;99.90;;;;;;5005384;28;20038;-76
2023/05/30 03:11:47;;;;;;;15.48;6.43;;;10.00;99.90;;;;;;4989149;28;20088;-77
2023/05/30 03:14:12;;;;;;;13.57;6.07;;;10.00;99.90;;;;;;4989957;28;20407;-77
2023/05/30 03:16:41;;;;;;;12.65;5.75;;;10.00;99.90;;;;;;4981935;28;20371;-76
2023/05/30 03:19:07;;;;;;;13.82;5.13;;;10.00;99.90;;;;;;5014649;28;20488;-76
2023/05/30 03:21:34;;;;;;;12.27;5.97;;;10.00;99.90;;;;;;5011066;28;20048;-76
2023/05/30 03:23:59;;;;;;;10.45;5.45;;;10.00;99.90;;;;;;5008546;28;20036;-76
2023/05/30 03:26:27;;;;;;;11.48;5.55;;;10.00;99.90;;;;;;5013888;28;20124;-76
2023/05/30 03:28:53;;;;;;;12.30;6.00;;;10.00;99.90;;;;;;5007883;28;20048;-76
2023/05/30 03:31:19;;;;;;;12.52;6.15;;;10.00;99.90;;;;;;5009611;28;20041;-77
2023/05/30 03:33:44;;;;;;;9.88;5.35;;;10.00;99.90;;;;;;5001898;28;20053;-76
2023/05/30 03:36:10;;;;;;;14.55;5.60;;;10.10;99.90;;;;;;4986457;28;20503;-76
2023/05/30 03:38:37;;;;;;;10.88;5.50;;;10.10;99.90;;;;;;4985558;28;20038;-77
2023/05/30 03:41:03;;;;;;;14.23;6.50;;;10.10;99.90;;;;;;5008079;28;20029;-77
2023/05/30 03:43:29;;;;;;;12.82;5.97;;;10.10;99.90;;;;;;4987291;28;20045;-76
2023/05/30 03:45:54;;;;;;;11.63;5.85;;;10.20;99.90;;;;;;4983792;28;20022;-77
2023/05/30 03:48:20;;;;;;;13.75;6.18;;;10.10;99.90;;;;;;5014114;28;20034;-76
2023/05/30 03:50:46;;;;;;;12.45;6.13;;;10.20;99.90;;;;;;4993332;28;20034;-75
2023/05/30 03:53:11;;;;;;;12.68;5.70;;;10.20;99.90;;;;;;4983656;28;20049;-77
2023/05/30 03:55:37;;;;;;;12.50;5.80;;;10.20;99.90;;;;;;5010531;28;20041;-76
2023/05/30 03:58:03;;;;;;;15.13;6.95;;;10.20;99.90;;;;;;5010728;28;20042;-77
2023/05/30 04:00:28;;;;;;;15.75;6.15;;;10.30;99.90;;;;;;5011626;28;20041;-77
2023/05/30 04:02:54;;;;;;;12.90;6.43;;;10.30;99.90;;;;;;5005075;28;20116;-77
2023/05/30 04:05:20;;;;;;;11.93;5.78;;;10.30;99.90;;;;;;5010330;28;20106;-75
2023/05/30 04:07:47;;;;;;;13.95;6.30;;;10.30;99.90;;;;;;5001740;28;20077;-76
2023/05/30 04:10:12;;;;;;;11.68;5.97;;;10.40;99.90;;;;;;4994282;28;20451;-76
2023/05/30 04:12:38;;;;;;;14.88;5.72;;;10.50;99.90;;;;;;4994416;28;20072;-77
2023/05/30 04:15:04;;;;;;;14.60;6.03;;;10.40;99.90;;;;;;5005328;28;20040;-76
2023/05/30 04:17:30;;;;;;;15.35;5.95;;;10.50;99.90;;;;;;4997786;28;20065;-77
2023/05/30 04:19:56;;;;;;;13.68;6.00;;;10.60;99.90;;;;;;5013854;28;20042;-77
2023/05/30 04:22:22;;;;;;;12.85;5.65;;;10.60;99.90;;;;;;5013945;28;20056;-77
2023/05/30 04:24:47;;;;;;;12.70;6.10;;;10.60;99.90;;;;;;4988873;28;20040;-77
2023/05/30 04:27:13;;;;;;;11.13;5.72;;;10.60;99.90;;;;;;4997512;28;20046;-76
2023/05/30 04:29:40;;;;;;;10.63;5.80;;;10.70;99.90;;;;;;4977961;28;20077;-77
2023/05/30 04:32:06;;;;;;;14.18;6.22;;;10.60;99.90;;;;;;5001866;28;20048;-77
2023/05/30 04:34:32;;;;;;;14.07;6.03;;;10.70;99.90;;;;;;4984774;28;20116;-76
2023/05/30 04:36:58;;;;;;;12.55;6.00;;;10.80;99.90;;;;;;5013592;28;20075;-77
2023/05/30 04:39:23;;;;;;;11.30;5.78;;;10.80;99.90;;;;;;5016153;28;20041;-76
2023/05/30 04:41:54;;;;;;;11.88;6.22;;;10.80;99.90;;;;;;5011705;28;20034;-77
2023/05/30 04:44:20;;;;;;;16.00;6.57;;;10.80;99.90;;;;;;4988756;28;20052;-76
2023/05/30 04:46:46;;;;;;;11.20;5.82;;;10.90;99.90;;;;;;4981472;28;20498;-77
2023/05/30 04:49:16;;;;;;;12.55;5.70;;;10.90;99.90;;;;;;5011556;28;20133;-77
2023/05/30 04:51:45;;;;;;;13.18;5.72;;;11.00;99.90;;;;;;5017177;28;20041;-76
2023/05/30 04:54:12;;;;;;;12.70;6.00;;;11.00;99.90;;;;;;5008748;28;20088;-77
2023/05/30 04:56:38;;;;;;;13.18;5.80;;;11.00;99.90;;;;;;5028694;28;20042;-76
2023/05/30 04:59:05;;;;;;;11.88;5.80;;;11.10;99.90;;;;;;5000156;28;20534;-76
2023/05/30 05:01:31;;;;;;;15.90;6.65;;;11.10;99.90;;;;;;5016070;28;20107;-76
2023/05/30 05:03:56;;;;;;;12.23;6.20;;;11.20;99.90;;;;;;5016691;28;20033;-77
2023/05/30 05:06:22;;;;;;;12.35;6.07;;;11.30;99.90;;;;;;4992329;28;20090;-77
2023/05/30 05:08:48;;;;;;;14.25;6.18;;;11.40;99.90;;;;;;5016916;28;20495;-77
2023/05/30 05:11:14;;;;;;;12.98;5.68;;;11.50;99.90;;;;;;5015852;28;20123;-77
2023/05/30 05:13:40;;;;;;;11.68;5.40;;;11.50;99.90;;;;;;5015739;28;20551;-77
2023/05/30 05:16:06;;;;;;;14.32;5.80;;;11.60;99.90;;;;;;5016423;28;20035;-77
2023/05/30 05:18:32;;;;;;;13.95;6.07;;;11.60;99.90;;;;;;5016739;28;20519;-77
2023/05/30 05:20:57;;;;;;;11.68;5.15;;;11.60;99.90;;;;;;5015962;28;20037;-77
2023/05/30 05:23:23;;;;;;;13.13;5.68;;;11.60;99.90;;;;;;5006204;28;20041;-77
2023/05/30 05:25:49;;;;;;;12.38;5.68;;;11.60;99.90;;;;;;5011580;28;20525;-77
2023/05/30 05:28:15;;;;;;;16.50;6.45;;;11.70;99.90;;;;;;5012425;28;20104;-77
2023/05/30 05:30:40;;;;;;;13.73;5.78;;;11.70;99.90;;;;;;5012180;28;20121;-76
2023/05/30 05:33:07;;;;;;;13.90;5.53;;;11.80;99.90;;;;;;5004881;28;20121;-76
2023/05/30 05:35:33;;;;;;;12.93;5.57;;;11.90;99.90;;;;;;5015621;28;20517;-76
2023/05/30 05:37:59;;;;;;;12.07;5.30;;;12.00;99.90;;;;;;5016195;28;20545;-76
2023/05/30 05:40:25;;;;;;;17.13;6.57;;;12.00;99.90;;;;;;5007325;28;20045;-76
2023/05/30 05:42:51;;;;;;;13.88;5.45;;;12.10;99.90;;;;;;5013488;28;20079;-76
2023/05/30 05:45:16;;;;;;;11.98;4.90;;;12.30;99.90;;;;;;5007807;28;20049;-76
2023/05/30 05:47:42;;;;;;;11.20;5.25;;;12.30;99.90;;;;;;4996361;28;20034;-76
2023/05/30 05:50:08;;;;;;;11.30;5.03;;;12.40;99.90;;;;;;4995639;28;20485;-77
2023/05/30 05:52:33;;;;;;;12.77;5.50;;;12.40;99.90;;;;;;4989628;28;20476;-76
2023/05/30 05:54:59;;;;;;;10.05;4.90;;;12.50;99.90;;;;;;5015056;28;20060;-76
2023/05/30 05:57:25;;;;;;;12.50;5.18;;;12.60;99.90;;;;;;5015496;28;20041;-76
2023/05/30 05:59:50;;;;;;;15.45;5.00;;;12.70;99.90;;;;;;5015118;28;20045;-76
2023/05/30 06:02:16;;;;;;;11.13;4.93;;;12.70;99.90;;;;;;5003728;28;20049;-76
2023/05/30 06:04:41;;;;;;;14.35;5.13;;;12.80;99.90;;;;;;4996749;28;20034;-76
2023/05/30 06:07:07;;;;;;;13.20;4.80;;;12.90;99.90;;;;;;5012493;28;20132;-76
2023/05/30 06:09:34;;;;;;;15.55;5.30;;;12.90;99.90;;;;;;5013653;28;20072;-76
2023/05/30 06:12:01;;;;;;;13.85;4.68;;;13.00;99.90;;;;;;5009567;28;20038;-76
2023/05/30 06:14:27;;;;;;;13.38;5.35;;;13.20;99.90;;;;;;5012654;28;20045;-76
2023/05/30 06:16:53;;;;;;;15.02;5.25;;;13.10;99.90;;;;;;5005594;28;20030;-77
2023/05/30 06:19:19;;;;;;;13.20;5.35;;;13.10;99.90;;;;;;5013796;28;20086;-77
2023/05/30 06:21:44;;;;;;;12.02;4.85;;;13.20;99.90;;;;;;5004066;28;20399;-77
2023/05/30 06:24:10;;;;;;;11.85;4.95;;;13.30;99.90;;;;;;5028562;28;20050;-76
2023/05/30 06:26:36;;;;;;;15.23;5.57;;;13.20;99.90;;;;;;4995717;28;20125;-78
2023/05/30 06:29:01;;;;;;;12.82;5.40;;;13.20;99.90;;;;;;4979913;28;20507;-77
2023/05/30 06:31:27;;;;;;;12.43;5.05;;;13.10;99.90;;;;;;5035501;28;20487;-77
2023/05/30 06:33:52;;;;;;;12.77;4.78;;;13.00;99.90;;;;;;5007054;28;20046;-76
2023/05/30 06:36:18;;;;;;;14.77;5.38;;;13.00;99.90;;;;;;4995640;28;20042;-76
2023/05/30 06:38:44;;;;;;;12.85;5.50;;;13.00;99.90;;;;;;5005236;28;20036;-76
2023/05/30 06:41:10;;;;;;;12.18;5.10;;;13.10;99.90;;;;;;5014892;28;20487;-77
2023/05/30 06:43:35;;;;;;;12.07;5.93;;;13.20;99.90;;;;;;5015472;28;20033;-77
2023/05/30 06:46:01;;;;;;;10.75;5.07;;;13.30;99.90;;;;;;5014063;28;20045;-77
2023/05/30 06:48:26;;;;;;;10.82;4.82;;;13.30;99.90;;;;;;5006378;28;20048;-77
2023/05/30 06:50:52;;;;;;;11.07;5.03;;;13.20;99.90;;;;;;5014934;28;20049;-77
2023/05/30 06:53:18;;;;;;;12.02;4.80;;;13.20;99.90;;;;;;5012343;28;20041;-76
2023/05/30 06:55:44;;;;;;;12.18;4.97;;;13.30;99.90;;;;;;5009846;28;20038;-76
2023/05/30 06:58:09;;;;;;;9.73;5.05;;;13.40;99.90;;;;;;5010053;28;20102;-77
2023/05/30 07:00:35;;;;;;;10.43;4.80;;;13.50;99.90;;;;;;5013989;28;20492;-77
2023/05/30 07:03:01;;;;;;;12.38;4.90;;;13.50;99.90;;;;;;5015078;28;20059;-77
2023/05/30 07:05:27;;;;;;;11.68;5.35;;;13.60;99.90;;;;;;5006339;28;20048;-77
2023/05/30 07:07:52;;;;;;;11.48;4.82;;;13.60;99.90;;;;;;5019733;28;20044;-77
2023/05/30 07:10:18;;;;;;;11.15;5.15;;;13.50;99.90;;;;;;5011573;28;20060;-77
2023/05/30 07:12:44;;;;;;;13.02;4.90;;;13.60;99.90;;;;;;5004123;28;20030;-77
2023/05/30 07:15:10;;;;;;;11.65;4.95;;;13.60;99.90;;;;;;5013292;28;20048;-76
2023/05/30 07:17:35;;;;;;;11.18;4.70;;;13.60;99.90;;;;;;5009518;28;20045;-77
2023/05/30 07:20:01;;;;;;;12.43;5.03;;;13.70;99.90;;;;;;5013809;28;20037;-77
2023/05/30 07:22:27;;;;;;;11.98;5.18;;;13.80;99.90;;;;;;4980516;28;20126;-77
2023/05/30 07:24:52;;;;;;;12.55;5.32;;;13.90;99.90;;;;;;4985046;28;20092;-77
2023/05/30 07:27:18;;;;;;;10.73;4.30;;;14.00;99.90;;;;;;5030281;28;20095;-77
2023/05/30 07:29:44;;;;;;;9.32;4.57;;;14.00;99.90;;;;;;5012281;28;20034;-76
2023/05/30 07:32:12;;;;;;;10.23;4.57;;;14.00;99.90;;;;;;5011935;28;20124;-76
2023/05/30 07:34:38;;;;;;;9.52;4.40;;;14.00;99.90;;;;;;5012763;28;20041;-76
2023/05/30 07:37:05;;;;;;;7.25;3.72;;;14.10;99.90;;;;;;5005535;28;20041;-76
2023/05/30 07:39:30;;;;;;;9.40;3.90;;;14.20;99.90;;;;;;5010796;28;20041;-76
2023/05/30 07:42:04;;;;;;;9.68;4.18;;;14.20;99.90;;;;;;5080480;23;20040;-77
2023/05/30 07:44:31;;;;;;;10.18;4.60;;;14.20;99.90;;;;;;5068099;28;20377;-78
2023/05/30 07:46:57;;;;;;;11.65;4.57;;;14.10;99.90;;;;;;5062550;28;20134;-77
2023/05/30 07:49:23;;;;;;;11.85;4.45;;;14.00;99.90;;;;;;5069165;28;20486;-76
2023/05/30 07:51:49;;;;;;;11.30;4.85;;;13.80;99.90;;;;;;5062348;28;20035;-77
2023/05/30 07:54:16;;;;;;;10.85;4.57;;;13.80;99.90;;;;;;5061471;28;20042;-78
2023/05/30 07:56:41;;;;;;;8.57;3.95;;;13.70;99.90;;;;;;5058144;28;20036;-77
2023/05/30 07:59:07;;;;;;;8.32;4.13;;;13.60;99.90;;;;;;5057325;28;20071;-77
2023/05/30 08:01:33;;;;;;;8.38;4.20;;;13.60;99.90;;;;;;5066182;28;20039;-78
2023/05/30 08:04:02;;;;;;;8.90;3.90;;;13.70;99.90;;;;;;5065487;28;20040;-80
2023/05/30 08:06:28;;;;;;;10.27;4.00;;;13.70;99.90;;;;;;5037707;28;20044;-77
2023/05/30 08:08:58;;;;;;;8.13;3.97;;;13.60;99.90;;;;;;5057466;28;20044;-77
2023/05/30 08:11:25;;;;;;;6.90;3.83;;;13.60;99.90;;;;;;5057452;28;20036;-76
2023/05/30 08:13:53;;;;;;;7.63;4.63;;;13.50;99.90;;;;;;5063022;28;20035;-78
2023/05/30 08:16:23;;;;;;;7.97;3.70;;;13.50;99.90;;;;;;5064554;28;20051;-78
2023/05/30 08:18:50;;;;;;;8.68;4.22;;;13.50;99.90;;;;;;5042564;28;20033;-78
2023/05/30 08:21:16;;;;;;;8.00;4.10;;;13.40;99.90;;;;;;5034240;28;20037;-76
2023/05/30 08:23:42;;;;;;;8.00;3.97;;;13.40;99.90;;;;;;5047943;28;20207;-77
2023/05/30 08:26:08;;;;;;;11.05;4.47;;;13.30;99.90;;;;;;5057107;28;20044;-76
2023/05/30 08:28:35;;;;;;;7.82;4.45;;;13.20;99.90;;;;;;5042467;28;20037;-77
2023/05/30 08:31:05;;;;;;;10.40;4.38;;;13.30;99.90;;;;;;5045687;28;20032;-77
2023/05/30 08:33:34;;;;;;;8.55;4.00;;;13.30;99.90;;;;;;5056353;28;20036;-76
2023/05/30 08:36:01;;;;;;;7.97;4.45;;;13.40;99.90;;;;;;5040096;28;20640;-77
2023/05/30 08:38:26;;;;;;;8.73;4.65;;;13.40;99.90;;;;;;5057461;28;20064;-77
2023/05/30 08:40:57;;;;;;;8.93;4.63;;;13.40;99.90;;;;;;5040866;28;20079;-78
2023/05/30 08:43:23;;;;;;;9.73;4.40;;;13.50;99.90;;;;;;5040622;28;20463;-77
2023/05/30 08:45:53;;;;;;;9.52;4.47;;;13.50;99.90;;;;;;5044004;28;20078;-77
2023/05/30 08:48:20;;;;;;;9.65;4.60;;;13.50;99.90;;;;;;5038147;28;20101;-76
2023/05/30 08:50:46;;;;;;;9.63;3.97;;;13.50;99.90;;;;;;5062386;28;20033;-77
2023/05/30 08:53:12;;;;;;;8.63;4.43;;;13.60;99.90;;;;;;5024018;28;20450;-77
2023/05/30 08:55:49;;;;;;;12.23;4.50;;;13.70;99.90;;;;;;5033046;28;20136;-77
2023/05/30 08:58:29;;;;;;;8.68;4.68;;;13.70;99.90;;;;;;5074084;28;20041;-77
2023/05/30 09:00:56;;;;;;;8.30;4.30;;;13.60;99.90;;;;;;5020214;28;20521;-77
2023/05/30 09:03:23;;;;;;;10.93;4.50;;;13.80;99.90;;;;;;5037043;28;20048;-77
2023/05/30 09:05:52;;;;;;;7.10;3.90;;;13.90;99.90;;;;;;5020289;28;20041;-77
2023/05/30 09:08:21;;;;;;;8.70;4.30;;;14.00;99.90;;;;;;5053960;28;20515;-77
2023/05/30 09:10:49;;;;;;;9.13;4.53;;;14.00;99.90;;;;;;5056567;28;20494;-76
2023/05/30 09:13:15;;;;;;;8.60;4.78;;;14.10;99.90;;;;;;5040247;28;20083;-76
2023/05/30 09:15:41;;;;;;;11.10;4.60;;;14.30;99.90;;;;;;5039939;28;20568;-76
2023/05/30 09:18:08;;;;;;;9.35;4.40;;;14.30;99.90;;;;;;5045663;28;20036;-76
2023/05/30 09:20:39;;;;;;;8.38;4.35;;;14.20;99.90;;;;;;5054295;28;20047;-76
2023/05/30 09:23:08;;;;;;;7.55;4.00;;;14.40;99.90;;;;;;5020306;28;20134;-77
2023/05/30 09:25:51;;;;;;;5.47;3.80;;;14.40;99.90;;;;;;5018967;28;20087;-77
2023/05/30 09:28:24;;;;;;;;;;;14.40;99.90;;;;;;5020755;28;20520;-76
2023/05/30 09:31:00;;;;;;;8.27;4.15;;;14.50;99.90;;;;;;5036389;28;20383;-77
2023/05/30 09:33:49;;;;;;;8.23;4.38;;;14.60;99.90;;;;;;5044270;28;20036;-77
2023/05/30 09:36:20;;;;;;;6.60;4.38;;;14.60;99.90;;;;;;5059443;28;20123;-77
2023/05/30 09:39:01;;;;;;;10.82;4.50;;;14.50;99.90;;;;;;5020100;28;20037;-77
2023/05/30 09:41:27;;;;;;;10.02;4.80;;;14.30;99.90;;;;;;5019826;28;20037;-77
2023/05/30 09:43:54;;;;;;;7.65;3.97;;;14.40;99.90;;;;;;5019893;28;20055;-76
2023/05/30 09:46:28;;;;;;;7.20;4.70;;;14.40;99.90;;;;;;5035310;28;20101;-78
2023/05/30 09:48:55;;;;;;;8.20;4.55;;;14.50;99.90;;;;;;5033974;28;20032;-77
2023/05/30 09:51:22;;;;;;;7.00;4.03;;;14.40;99.90;;;;;;5019485;28;20069;-77
2023/05/30 09:53:58;;;;;;;5.88;3.20;;;14.60;99.90;;;;;;5019639;28;20077;-77
2023/05/30 09:56:33;;;;;;;6.55;3.50;;;14.80;99.90;;;;;;5019576;28;20398;-77
2023/05/30 09:59:07;;;;;;;5.07;3.08;;;14.80;99.90;;;;;;5019411;28;20041;-77
2023/05/30 10:01:45;;;;;;;7.35;2.97;;;14.80;99.90;;;;;;5041187;28;20128;-77
2023/05/30 10:04:23;;;;;;;5.82;3.10;;;14.70;99.90;;;;;;5059792;28;20097;-76
2023/05/30 10:06:53;;;;;;;5.05;2.97;;;14.90;99.90;;;;;;5019075;28;20045;-77
2023/05/30 10:09:21;;;;;;;5.95;2.95;;;14.90;99.90;;;;;;5018941;28;20128;-76
2023/05/30 10:11:47;;;;;;;4.43;2.70;;;14.90;99.90;;;;;;5052095;28;20051;-77
2023/05/30 10:14:13;;;;;;;4.82;3.10;;;15.00;99.90;;;;;;5047489;28;20029;-77
2023/05/30 10:17:02;;;;;;;4.07;2.88;;;15.10;99.90;;;;;;5027172;28;20091;-77
2023/05/30 10:19:40;;;;;;;5.97;3.22;;;15.20;99.90;;;;;;5035962;28;20417;-77
2023/05/30 10:22:07;;;;;;;4.50;2.40;;;15.20;99.90;;;;;;5039029;28;20068;-77
2023/05/30 10:24:33;;;;;;;4.90;2.90;;;15.30;99.90;;;;;;5019986;28;20467;-77
2023/05/30 10:27:03;;;;;;;3.08;2.47;;;15.30;99.90;;;;;;5018580;28;20072;-77
2023/05/30 10:29:50;;;;;;;3.63;2.58;;;15.40;99.90;;;;;;5035468;28;20087;-77
2023/05/30 10:32:25;;;;;;;4.00;2.70;;;15.40;99.90;;;;;;5042472;28;20044;-77
2023/05/30 10:34:59;;;;;;;4.47;2.58;;;15.50;99.90;;;;;;5066224;28;20040;-77
2023/05/30 10:37:26;;;;;;;3.85;2.70;;;15.50;99.90;;;;;;5043334;28;20032;-77
2023/05/30 10:40:12;;;;;;;4.60;3.15;;;15.40;99.90;;;;;;5025225;28;20041;-77
2023/05/30 10:42:47;;;;;;;5.45;2.80;;;15.30;99.90;;;;;;5018716;28;20080;-78
2023/05/30 10:45:18;;;;;;;4.10;2.60;;;15.30;99.90;;;;;;5018846;28;20049;-77
2023/05/30 10:48:07;;;;;;;5.43;2.80;;;15.10;99.90;;;;;;5038412;28;20036;-77
2023/05/30 10:50:39;;;;;;;5.07;2.70;;;14.90;99.90;;;;;;5047476;28;20040;-77
2023/05/30 10:53:18;;;;;;;4.95;2.80;;;15.00;99.90;;;;;;5038378;28;20036;-77
2023/05/30 10:55:47;;;;;;;3.72;2.53;;;15.10;99.90;;;;;;5056020;28;20040;-77
2023/05/30 10:58:50;;;;;;;3.25;2.22;;;15.30;99.90;;;;;;5022377;28;20064;-77
2023/05/30 11:01:32;;;;;;;4.65;2.58;;;15.50;99.90;;;;;;4958630;28;20456;-77
2023/05/30 11:04:05;;;;;;;4.32;2.90;;;15.60;99.90;;;;;;5066117;28;20048;-77
2023/05/30 11:06:42;;;;;;;2.90;2.45;;;15.50;99.90;;;;;;5018076;28;20051;-77
2023/05/30 11:09:14;;;;;;;3.97;2.58;;;15.40;99.90;;;;;;5066472;28;20075;-78
2023/05/30 11:11:41;;;;;;;3.72;2.45;;;15.50;99.90;;;;;;5060316;28;20112;-77
2023/05/30 11:14:08;;;;;;;3.72;2.40;;;15.50;99.90;;;;;;5038964;28;20048;-77
2023/05/30 11:16:55;;;;;;;3.22;2.58;;;15.40;99.90;;;;;;5037899;28;20092;-77
2023/05/30 11:19:39;;;;;;;2.72;1.88;;;15.30;99.90;;;;;;5035622;28;20537;-76
2023/05/30 11:22:15;;;;;;;2.92;2.20;;;15.20;99.90;;;;;;5053409;28;20044;-76
2023/05/30 11:24:41;;;;;;;3.00;2.17;;;15.40;99.90;;;;;;5037628;28;20494;-76
2023/05/30 11:27:13;;;;;;;2.83;2.22;;;15.30;99.90;;;;;;5038436;28;20040;-77
2023/05/30 11:29:55;;;;;;;2.50;1.70;;;15.40;99.90;;;;;;5047403;28;20043;-76
2023/05/30 11:32:28;;;;;;;3.63;2.15;;;15.40;99.90;;;;;;5035196;28;20128;-77
2023/05/30 11:34:57;;;;;;;;;;;15.40;99.90;;;;;;5038187;28;20119;-76
2023/05/30 11:37:24;;;;;;;3.15;2.38;;;15.50;99.90;;;;;;5041580;28;19970;-76
2023/05/30 11:39:56;;;;;;;3.47;2.08;;;15.60;99.90;;;;;;5037073;28;20040;-76
2023/05/30 11:42:22;;;;;;;3.10;2.10;;;15.60;99.90;;;;;;5053732;28;20036;-76
2023/05/30 11:44:48;;;;;;;2.60;1.98;;;15.60;99.90;;;;;;5020525;28;20040;-76
2023/05/30 11:47:18;;;;;;;1.90;1.50;;;15.70;99.90;;;;;;5058626;28;20048;-77
2023/05/30 11:49:47;;;;;;;2.63;1.80;;;15.70;99.90;;;;;;5032087;28;20064;-77
2023/05/30 11:52:15;;;;;;;1.95;1.70;;;15.80;99.90;;;;;;5033278;28;20529;-76
2023/05/30 11:54:43;;;;;;;2.85;1.70;;;15.90;99.90;;;;;;5037243;28;20094;-77
2023/05/30 11:57:16;;;;;;;2.83;1.60;;;15.90;99.90;;;;;;5044062;28;20040;-77
2023/05/30 11:59:42;;;;;;;;;;;15.90;99.90;;;;;;5037974;28;20036;-77
2023/05/30 12:02:11;;;;;;;2.90;1.60;;;15.80;99.90;;;;;;5051580;28;20400;-77
2023/05/30 12:04:50;;;;;;;6.60;1.77;;;15.90;99.90;;;;;;5032146;28;20132;-77
2023/05/30 12:07:27;;;;;;;2.15;1.52;;;16.00;99.90;;;;;;5049051;28;20387;-77
2023/05/30 12:09:56;;;;;;;1.80;1.50;;;16.10;99.90;;;;;;5031745;28;20415;-77
2023/05/30 12:12:27;;;;;;;2.25;1.35;;;15.90;99.90;;;;;;5032184;28;20041;-77
2023/05/30 12:14:58;;;;;;;2.38;1.40;;;15.90;99.90;;;;;;5027155;28;20069;-77
2023/05/30 12:17:24;;;;;;;2.35;1.20;;;15.90;99.90;;;;;;5033793;28;20041;-77
2023/05/30 12:19:55;;;;;;;4.72;1.20;;;16.10;99.90;;;;;;5017986;28;20478;-78
2023/05/30 12:22:22;;;;;;;1.73;1.40;;;16.20;99.90;;;;;;5017124;28;20045;-77
2023/05/30 12:24:51;;;;;;;2.63;1.20;;;16.20;99.90;;;;;;5018933;28;20094;-77
2023/05/30 12:27:21;;;;;;;1.50;1.40;;;16.30;99.90;;;;;;5044970;28;20056;-76
2023/05/30 12:29:48;;;;;;;1.27;1.10;;;16.40;99.90;;;;;;5036947;28;20110;-77
2023/05/30 12:32:25;;;;;;;3.05;1.63;;;16.60;99.90;;;;;;5037299;28;20068;-77
2023/05/30 12:34:56;;;;;;;1.85;1.40;;;16.60;99.90;;;;;;5037157;28;20040;-78
2023/05/30 12:37:22;;;;;;;1.90;1.35;;;16.60;99.90;;;;;;5045215;28;20479;-77
2023/05/30 12:39:57;;;;;;;1.52;1.23;;;16.50;99.90;;;;;;5053664;28;20047;-77
2023/05/30 12:42:24;;;;;;;3.03;1.50;;;16.20;99.90;;;;;;5053368;28;20131;-77
2023/05/30 12:45:00;;;;;;;2.78;1.90;;;16.00;99.90;;;;;;5037030;28;20040;-77
2023/05/30 12:47:27;;;;;;;2.03;1.50;;;15.90;99.90;;;;;;5042168;28;20049;-77
2023/05/30 12:49:54;;;;;;;1.60;1.50;;;15.90;99.90;;;;;;5028205;28;20040;-77